createdAt,value
2022-08-17T00:00:44.113Z,3.40
2022-08-17T00:03:11.819Z,3.00
2022-08-17T00:05:48.316Z,4.15
2022-08-17T00:08:19.811Z,3.47
2022-08-17T00:10:48.508Z,3.20
2022-08-17T00:13:38.299Z,4.20
2022-08-17T00:16:13.421Z,2.65
2022-08-17T00:19:01.221Z,2.90
2022-08-17T00:21:56.369Z,3.05
2022-08-17T00:24:17.940Z,3.88
2022-08-17T00:26:46.082Z,2.60
2022-08-17T00:29:19.593Z,3.42
2022-08-17T00:31:48.744Z,4.10
2022-08-17T00:34:16.786Z,2.42
2022-08-17T00:36:44.463Z,2.90
2022-08-17T00:39:12.187Z,3.25
2022-08-17T00:41:42.146Z,2.55
2022-08-17T00:44:12.403Z,3.92
2022-08-17T00:46:42.473Z,3.13
2022-08-17T00:49:13.728Z,2.67
2022-08-17T00:51:46.589Z,3.08
2022-08-17T00:54:26.112Z,2.88
2022-08-17T00:57:36.751Z,2.55
2022-08-17T01:00:11.561Z,3.53
2022-08-17T01:02:43.314Z,2.78
2022-08-17T01:05:16.636Z,2.80
2022-08-17T01:07:47.879Z,2.72
2022-08-17T01:10:59.224Z,2.75
2022-08-17T01:13:07.430Z,3.08
2022-08-17T01:15:48.018Z,3.30
2022-08-17T01:18:16.680Z,3.33
2022-08-17T01:20:53.745Z,2.70
2022-08-17T01:23:24.174Z,4.53
2022-08-17T01:25:57.690Z,3.33
2022-08-17T01:28:33.473Z,3.50
2022-08-17T01:31:18.913Z,2.65
2022-08-17T01:33:46.571Z,2.78
2022-08-17T01:36:14.444Z,3.13
2022-08-17T01:38:42.267Z,4.15
2022-08-17T01:41:14.583Z,3.50
2022-08-17T01:43:57.322Z,3.45
2022-08-17T01:46:28.527Z,3.15
2022-08-17T01:51:27.720Z,4.03
2022-08-17T01:53:58.282Z,3.20
2022-08-17T01:56:28.680Z,3.00
2022-08-17T01:58:56.881Z,4.13
2022-08-17T02:01:28.603Z,4.18
2022-08-17T02:04:01.270Z,4.65
2022-08-17T02:06:53.639Z,4.07
2022-08-17T02:09:23.311Z,4.80
2022-08-17T02:11:57.504Z,3.70
2022-08-17T02:14:25.449Z,6.22
2022-08-17T02:16:54.330Z,5.05
2022-08-17T02:19:22.530Z,5.70
2022-08-17T02:21:53.040Z,3.17
2022-08-17T02:25:00.784Z,4.88
2022-08-17T02:27:15.717Z,3.95
2022-08-17T02:29:43.422Z,3.95
2022-08-17T02:32:27.608Z,3.50
2022-08-17T02:34:57.557Z,4.88
2022-08-17T02:37:27.012Z,4.95
2022-08-17T02:39:57.229Z,3.85
2022-08-17T02:42:36.514Z,4.68
2022-08-17T02:45:12.969Z,3.65
2022-08-17T02:47:41.410Z,3.42
2022-08-17T02:50:12.014Z,3.80
2022-08-17T02:52:43.641Z,3.83
2022-08-17T02:55:15.989Z,3.72
2022-08-17T02:57:44.437Z,5.60
2022-08-17T03:00:16.934Z,5.20
2022-08-17T03:02:45.340Z,4.00
2022-08-17T03:05:14.501Z,4.60
2022-08-17T03:07:43.173Z,5.47
2022-08-17T03:10:11.795Z,4.03
2022-08-17T03:12:42.278Z,4.05
2022-08-17T03:15:16.340Z,3.72
2022-08-17T03:17:44.805Z,4.93
2022-08-17T03:20:13.883Z,4.68
2022-08-17T03:22:48.005Z,3.72
2022-08-17T03:25:27.496Z,3.65
2022-08-17T03:27:57.234Z,4.68
2022-08-17T03:30:26.785Z,4.22
2022-08-17T03:32:57.303Z,4.72
2022-08-17T03:35:28.501Z,4.15
2022-08-17T03:40:34.594Z,4.00
2022-08-17T03:43:21.885Z,3.83
2022-08-17T03:46:10.805Z,4.10
2022-08-17T03:49:15.769Z,4.22
2022-08-17T03:52:01.920Z,4.07
2022-08-17T03:54:48.028Z,3.55
2022-08-17T03:57:16.734Z,3.60
2022-08-17T03:59:45.055Z,5.07
2022-08-17T04:02:20.034Z,3.47
2022-08-17T04:04:51.021Z,8.15
2022-08-17T04:09:47.213Z,6.22
2022-08-17T04:12:20.166Z,5.40
2022-08-17T04:14:52.715Z,5.50
2022-08-17T04:17:27.766Z,4.00
2022-08-17T04:19:55.864Z,5.40
2022-08-17T04:22:30.930Z,3.97
2022-08-17T04:25:09.097Z,5.15
2022-08-17T04:27:36.827Z,4.65
2022-08-17T04:30:07.394Z,4.78
2022-08-17T04:33:05.866Z,4.68
2022-08-17T04:35:45.780Z,4.72
2022-08-17T04:38:16.828Z,4.93
2022-08-17T04:41:03.198Z,4.85
2022-08-17T04:43:32.950Z,4.43
2022-08-17T04:46:07.206Z,4.57
2022-08-17T04:48:46.281Z,4.45
2022-08-17T04:51:22.151Z,3.75
2022-08-17T04:53:54.419Z,5.03
2022-08-17T04:56:25.971Z,7.05
2022-08-17T04:58:56.741Z,5.72
2022-08-17T05:01:26.494Z,5.80
2022-08-17T05:03:56.416Z,4.97
2022-08-17T05:06:24.288Z,5.22
2022-08-17T05:08:52.591Z,5.15
2022-08-17T05:11:21.074Z,4.72
2022-08-17T05:13:50.381Z,5.22
2022-08-17T05:16:19.390Z,4.88
2022-08-17T05:18:48.247Z,5.20
2022-08-17T05:21:16.184Z,4.05
2022-08-17T05:23:45.013Z,4.90
2022-08-17T05:26:26.153Z,4.50
2022-08-17T05:28:59.648Z,4.75
2022-08-17T05:31:29.548Z,4.05
2022-08-17T05:33:57.459Z,5.60
2022-08-17T05:36:41.547Z,4.35
2022-08-17T05:39:16.564Z,5.25
2022-08-17T05:41:47.482Z,5.45
2022-08-17T05:44:15.732Z,4.50
2022-08-17T05:46:48.835Z,4.03
2022-08-17T05:49:21.665Z,5.65
2022-08-17T05:52:11.322Z,6.93
2022-08-17T05:55:13.148Z,4.85
2022-08-17T05:58:02.448Z,4.28
2022-08-17T06:00:42.379Z,5.57
2022-08-17T06:03:17.088Z,4.68
2022-08-17T06:06:06.113Z,4.10
2022-08-17T06:08:51.515Z,4.80
2022-08-17T06:11:46.943Z,4.95
2022-08-17T06:15:02.660Z,5.47
2022-08-17T06:17:31.241Z,5.82
2022-08-17T06:20:11.693Z,5.72
2022-08-17T06:22:55.970Z,5.63
2022-08-17T06:25:44.113Z,4.40
2022-08-17T06:28:16.292Z,5.30
2022-08-17T06:30:59.476Z,5.82
2022-08-17T06:33:38.226Z,4.13
2022-08-17T06:36:29.439Z,4.45
2022-08-17T06:39:20.967Z,4.68
2022-08-17T06:41:57.238Z,5.25
2022-08-17T06:44:49.675Z,7.35
2022-08-17T06:47:35.077Z,4.18
2022-08-17T06:50:18.131Z,5.03
2022-08-17T06:53:00.095Z,4.57
2022-08-17T06:55:38.235Z,4.90
2022-08-17T06:58:16.355Z,5.68
2022-08-17T07:00:47.353Z,4.15
2022-08-17T07:03:49.868Z,3.92
2022-08-17T07:06:20.843Z,4.10
2022-08-17T07:09:00.081Z,3.65
2022-08-17T07:11:51.561Z,3.85
2022-08-17T07:14:31.797Z,4.30
2022-08-17T07:17:02.899Z,4.43
2022-08-17T07:19:33.096Z,4.30
2022-08-17T07:22:25.049Z,4.32
2022-08-17T07:24:58.576Z,4.45
2022-08-17T07:27:45.883Z,3.58
2022-08-17T07:30:19.367Z,4.00
2022-08-17T07:33:08.370Z,3.05
2022-08-17T07:35:44.034Z,4.20
2022-08-17T07:38:29.732Z,3.33
2022-08-17T07:41:04.928Z,5.32
2022-08-17T07:43:40.909Z,3.88
2022-08-17T07:46:34.014Z,5.38
2022-08-17T07:49:03.471Z,3.38
2022-08-17T07:51:53.335Z,3.50
2022-08-17T07:54:24.301Z,3.43
2022-08-17T07:56:57.808Z,3.33
2022-08-17T07:59:33.519Z,3.97
2022-08-17T08:02:06.161Z,3.33
2022-08-17T08:04:59.649Z,3.42
2022-08-17T08:07:50.495Z,4.15
2022-08-17T08:10:45.027Z,3.83
2022-08-17T08:13:42.359Z,3.42
2022-08-17T08:16:20.024Z,2.95
2022-08-17T08:18:55.542Z,3.92
2022-08-17T08:21:57.130Z,3.30
2022-08-17T08:25:19.952Z,3.60
2022-08-17T08:28:01.650Z,3.72
2022-08-17T08:30:34.720Z,3.15
2022-08-17T08:33:05.678Z,2.80
2022-08-17T08:35:55.076Z,3.15
2022-08-17T08:38:34.514Z,4.20
2022-08-17T08:41:08.402Z,2.60
2022-08-17T08:44:04.219Z,2.88
2022-08-17T08:47:02.850Z,2.80
2022-08-17T08:52:51.833Z,2.50
2022-08-17T08:55:34.513Z,3.67
2022-08-17T08:58:31.816Z,4.35
2022-08-17T09:01:02.702Z,2.30
2022-08-17T09:04:21.408Z,2.30
2022-08-17T09:07:13.690Z,3.17
2022-08-17T09:10:03.552Z,2.45
2022-08-17T09:12:43.836Z,2.93
2022-08-17T09:15:27.581Z,3.55
2022-08-17T09:21:33.708Z,3.35
2022-08-17T09:24:20.770Z,3.10
2022-08-17T09:27:00.360Z,2.95
2022-08-17T09:29:35.277Z,2.92
2022-08-17T09:32:17.514Z,2.88
2022-08-17T09:34:55.042Z,3.22
2022-08-17T09:37:32.794Z,3.38
2022-08-17T09:40:13.868Z,3.13
2022-08-17T09:42:49.950Z,2.72
2022-08-17T09:45:24.206Z,3.40
2022-08-17T09:48:02.138Z,3.17
2022-08-17T09:51:06.938Z,3.08
2022-08-17T09:53:39.539Z,3.58
2022-08-17T09:56:07.282Z,3.85
2022-08-17T09:58:40.774Z,2.63
2022-08-17T10:01:31.371Z,3.30
2022-08-17T10:06:41.102Z,2.70
2022-08-17T10:09:22.015Z,3.50
2022-08-17T10:12:17.158Z,3.10
2022-08-17T10:14:59.702Z,3.10
2022-08-17T10:17:53.460Z,3.05
2022-08-17T10:20:46.389Z,3.33
2022-08-17T10:23:43.733Z,3.20
2022-08-17T10:26:20.621Z,3.10
2022-08-17T10:29:24.638Z,3.05
2022-08-17T10:32:01.673Z,3.28
2022-08-17T10:34:46.652Z,3.35
2022-08-17T10:37:43.479Z,3.67
2022-08-17T10:40:17.778Z,3.88
2022-08-17T10:42:56.905Z,2.97
2022-08-17T10:45:46.966Z,3.20
2022-08-17T10:48:17.567Z,4.07
2022-08-17T10:53:36.877Z,7.22
2022-08-17T10:56:14.146Z,3.20
2022-08-17T10:58:56.238Z,3.10
2022-08-17T11:01:33.118Z,4.05
2022-08-17T11:04:25.094Z,3.17
2022-08-17T11:07:25.816Z,2.85
2022-08-17T11:12:37.661Z,3.38
2022-08-17T11:15:45.166Z,3.55
2022-08-17T11:18:40.718Z,2.95
2022-08-17T11:21:21.332Z,3.78
2022-08-17T11:24:11.438Z,3.35
2022-08-17T11:26:47.642Z,3.60
2022-08-17T11:29:24.823Z,6.22
2022-08-17T11:32:13.501Z,3.72
2022-08-17T11:34:44.613Z,3.30
2022-08-17T11:37:23.687Z,3.85
2022-08-17T11:40:12.996Z,3.03
2022-08-17T11:42:52.626Z,3.53
2022-08-17T11:45:41.790Z,3.30
2022-08-17T11:49:00.955Z,2.60
2022-08-17T11:51:56.044Z,3.40
2022-08-17T11:54:46.317Z,4.20
2022-08-17T11:57:25.881Z,3.50
2022-08-17T11:59:55.309Z,3.75
2022-08-17T12:02:31.728Z,3.95
2022-08-17T12:05:15.058Z,4.25
2022-08-17T12:08:10.795Z,3.58
2022-08-17T12:10:54.295Z,3.95
2022-08-17T12:13:35.184Z,4.60
2022-08-17T12:16:10.053Z,3.58
2022-08-17T12:18:42.231Z,3.20
2022-08-17T12:21:24.269Z,3.60
2022-08-17T12:24:13.525Z,3.47
2022-08-17T12:26:48.962Z,4.43
2022-08-17T12:29:35.418Z,3.47
2022-08-17T12:32:17.826Z,3.15
2022-08-17T12:34:47.976Z,3.92
2022-08-17T12:37:25.561Z,3.75
2022-08-17T12:40:16.726Z,3.88
2022-08-17T12:43:05.829Z,4.55
2022-08-17T12:45:41.907Z,3.50
2022-08-17T12:48:22.118Z,4.45
2022-08-17T12:50:50.906Z,3.35
2022-08-17T12:53:24.818Z,3.25
2022-08-17T12:55:53.905Z,3.35
2022-08-17T12:58:25.917Z,3.28
2022-08-17T13:01:08.788Z,3.47
2022-08-17T13:03:41.117Z,3.35
2022-08-17T13:06:12.237Z,3.13
2022-08-17T13:08:42.881Z,3.03
2022-08-17T13:11:20.174Z,3.63
2022-08-17T13:13:51.305Z,3.28
2022-08-17T13:16:23.595Z,3.50
2022-08-17T13:18:53.810Z,4.05
2022-08-17T13:21:26.726Z,3.65
2022-08-17T13:24:02.243Z,3.88
2022-08-17T13:26:38.047Z,3.42
2022-08-17T13:29:14.625Z,3.22
2022-08-17T13:31:52.832Z,4.43
2022-08-17T13:34:27.288Z,4.80
2022-08-17T13:37:30.276Z,3.30
2022-08-17T13:40:21.520Z,3.90
2022-08-17T13:42:53.978Z,3.47
2022-08-17T13:45:36.470Z,3.38
2022-08-17T13:48:17.327Z,3.17
2022-08-17T13:50:54.685Z,2.55
2022-08-17T13:53:28.297Z,2.72
2022-08-17T13:56:33.431Z,3.22
2022-08-17T13:59:05.096Z,2.85
2022-08-17T14:01:32.845Z,3.33
2022-08-17T14:04:03.510Z,2.42
2022-08-17T14:06:54.135Z,2.88
2022-08-17T14:09:26.026Z,3.22
2022-08-17T14:11:55.023Z,2.92
2022-08-17T14:15:54.830Z,3.15
2022-08-17T14:18:56.166Z,3.05
2022-08-17T14:22:08.288Z,3.00
2022-08-17T14:28:18.632Z,2.90
2022-08-17T14:30:52.329Z,3.33
2022-08-17T14:33:22.553Z,3.35
2022-08-17T14:38:20.367Z,3.03
2022-08-17T14:40:49.041Z,3.60
2022-08-17T14:43:19.629Z,4.30
2022-08-17T14:45:47.880Z,2.65
2022-08-17T14:48:15.986Z,3.30
2022-08-17T14:50:44.397Z,3.17
2022-08-17T14:53:15.545Z,2.65
2022-08-17T14:55:47.229Z,2.47
2022-08-17T14:58:16.442Z,2.20
2022-08-17T15:01:00.827Z,3.22
2022-08-17T15:03:31.218Z,2.25
2022-08-17T15:05:59.722Z,3.20
2022-08-17T15:08:28.369Z,3.00
2022-08-17T15:10:58.875Z,3.03
2022-08-17T15:13:36.835Z,2.70
2022-08-17T15:16:29.238Z,2.40
2022-08-17T15:19:00.039Z,2.83
2022-08-17T15:21:31.079Z,1.90
2022-08-17T15:23:59.044Z,3.13
2022-08-17T15:26:26.754Z,3.47
2022-08-17T15:28:56.166Z,2.75
2022-08-17T15:31:31.883Z,2.77
2022-08-17T15:34:00.221Z,3.13
2022-08-17T15:36:28.175Z,3.00
2022-08-17T15:38:55.896Z,2.78
2022-08-17T15:41:23.608Z,2.92
2022-08-17T15:43:51.746Z,2.40
2022-08-17T15:46:24.566Z,2.92
2022-08-17T15:48:55.658Z,2.88
2022-08-17T15:51:25.688Z,2.67
2022-08-17T15:54:04.421Z,3.60
2022-08-17T15:56:47.123Z,2.75
2022-08-17T15:59:14.858Z,2.80
2022-08-17T16:03:14.277Z,3.38
2022-08-17T16:04:31.669Z,2.88
2022-08-17T16:07:00.490Z,2.83
2022-08-17T16:09:28.701Z,3.20
2022-08-17T16:11:56.702Z,2.97
2022-08-17T16:14:33.553Z,3.30
2022-08-17T16:17:04.926Z,3.35
2022-08-17T16:19:53.022Z,2.33
2022-08-17T16:22:33.628Z,2.92
2022-08-17T16:25:06.703Z,2.50
2022-08-17T16:27:34.740Z,2.05
2022-08-17T16:30:04.566Z,3.08
2022-08-17T16:32:32.963Z,2.95
2022-08-17T16:35:06.372Z,2.83
2022-08-17T16:37:35.042Z,2.97
2022-08-17T16:40:06.926Z,2.42
2022-08-17T16:42:37.076Z,2.88
2022-08-17T16:45:24.020Z,3.63
2022-08-17T16:47:51.902Z,3.00
2022-08-17T16:50:23.276Z,3.20
2022-08-17T16:52:51.405Z,3.38
2022-08-17T16:55:22.079Z,2.75
2022-08-17T16:57:50.814Z,2.75
2022-08-17T17:00:20.871Z,2.58
2022-08-17T17:02:49.610Z,2.88
2022-08-17T17:05:48.583Z,2.95
2022-08-17T17:08:30.444Z,2.95
2022-08-17T17:11:03.916Z,2.40
2022-08-17T17:13:48.563Z,2.83
2022-08-17T17:16:41.374Z,2.78
2022-08-17T17:19:17.951Z,2.70
2022-08-17T17:22:29.532Z,2.05
2022-08-17T17:25:27.997Z,2.25
2022-08-17T17:28:17.953Z,2.28
2022-08-17T17:31:02.092Z,2.60
2022-08-17T17:33:49.317Z,1.98
2022-08-17T17:36:25.819Z,3.20
2022-08-17T17:39:00.344Z,2.55
2022-08-17T17:41:53.635Z,2.60
2022-08-17T17:44:43.713Z,2.67
2022-08-17T17:47:13.060Z,3.03
2022-08-17T17:49:46.662Z,2.53
2022-08-17T17:52:26.487Z,2.92
2022-08-17T17:54:57.101Z,2.95
2022-08-17T17:57:48.999Z,3.10
2022-08-17T18:00:37.118Z,2.75
2022-08-17T18:03:26.034Z,4.45
2022-08-17T18:06:18.751Z,2.85
2022-08-17T18:09:23.100Z,2.97
2022-08-17T18:12:01.383Z,3.65
2022-08-17T18:14:55.325Z,2.65
2022-08-17T18:17:23.708Z,2.15
2022-08-17T18:19:54.337Z,2.67
2022-08-17T18:22:23.666Z,2.42
2022-08-17T18:24:56.215Z,2.80
2022-08-17T18:27:36.772Z,3.08
2022-08-17T18:32:50.702Z,2.50
2022-08-17T18:35:18.326Z,2.80
2022-08-17T18:37:48.464Z,3.03
2022-08-17T18:40:19.945Z,2.70
2022-08-17T18:43:03.116Z,2.30
2022-08-17T18:45:38.321Z,2.60
2022-08-17T18:48:17.986Z,2.33
2022-08-17T18:50:46.052Z,2.35
2022-08-17T18:53:34.377Z,2.67
2022-08-17T18:56:26.456Z,3.15
2022-08-17T18:59:05.266Z,3.50
2022-08-17T19:02:22.121Z,2.67
2022-08-17T19:05:09.572Z,4.28
2022-08-17T19:07:44.260Z,2.55
2022-08-17T19:10:18.893Z,3.78
2022-08-17T19:13:00.122Z,9.52
2022-08-17T19:15:35.538Z,10.88
2022-08-17T19:18:21.298Z,9.05
2022-08-17T19:21:03.899Z,6.15
2022-08-17T19:23:53.535Z,3.35
2022-08-17T19:26:51.406Z,3.25
2022-08-17T19:29:22.336Z,4.10
2022-08-17T19:31:50.654Z,4.93
2022-08-17T19:34:33.654Z,3.53
2022-08-17T19:37:22.077Z,3.45
2022-08-17T19:40:06.849Z,4.63
2022-08-17T19:42:55.840Z,12.45
2022-08-17T19:45:29.777Z,5.30
2022-08-17T19:48:14.968Z,4.80
2022-08-17T19:51:04.589Z,5.80
2022-08-17T19:54:05.004Z,9.20
2022-08-17T19:56:47.972Z,6.32
2022-08-17T19:59:46.466Z,5.95
2022-08-17T20:02:25.840Z,4.82
2022-08-17T20:05:02.370Z,2.83
2022-08-17T20:07:51.253Z,4.00
2022-08-17T20:10:37.357Z,3.47
2022-08-17T20:13:42.081Z,2.83
2022-08-17T20:16:21.096Z,2.88
2022-08-17T20:19:00.929Z,2.92
2022-08-17T20:21:39.352Z,2.67
2022-08-17T20:24:25.483Z,2.42
2022-08-17T20:27:08.112Z,2.85
2022-08-17T20:30:33.491Z,3.30
2022-08-17T20:33:02.777Z,3.63
2022-08-17T20:35:38.753Z,2.47
2022-08-17T20:38:13.076Z,2.60
2022-08-17T20:40:57.466Z,2.90
2022-08-17T20:43:35.747Z,2.80
2022-08-17T20:46:42.430Z,3.20
2022-08-17T20:49:41.405Z,2.97
2022-08-17T20:52:13.467Z,3.53
2022-08-17T20:54:45.480Z,3.67
2022-08-17T20:57:34.238Z,2.30
2022-08-17T21:00:18.305Z,2.28
2022-08-17T21:02:49.808Z,2.30
2022-08-17T21:05:57.356Z,2.53
2022-08-17T21:08:57.734Z,3.38
2022-08-17T21:11:57.032Z,1.83
2022-08-17T21:14:36.715Z,3.10
2022-08-17T21:17:33.628Z,2.17
2022-08-17T21:20:11.854Z,2.50
2022-08-17T21:22:59.126Z,2.70
2022-08-17T21:25:48.966Z,2.63
2022-08-17T21:28:37.449Z,2.87
2022-08-17T21:32:09.112Z,2.17
2022-08-17T21:34:43.211Z,2.95
2022-08-17T21:37:23.412Z,2.85
2022-08-17T21:40:18.472Z,2.78
2022-08-17T21:42:50.854Z,2.50
2022-08-17T21:45:25.559Z,2.38
2022-08-17T21:48:14.803Z,1.95
2022-08-17T21:50:57.860Z,1.80
2022-08-17T21:53:33.590Z,2.72
2022-08-17T21:56:01.408Z,2.78
2022-08-17T21:58:33.400Z,2.53
2022-08-17T22:01:22.676Z,2.40
2022-08-17T22:04:00.543Z,2.05
2022-08-17T22:06:34.335Z,3.05
2022-08-17T22:09:28.114Z,1.92
2022-08-17T22:12:17.775Z,2.63
2022-08-17T22:15:06.085Z,2.58
2022-08-17T22:17:37.082Z,2.20
2022-08-17T22:20:15.049Z,2.20
2022-08-17T22:23:04.253Z,2.30
2022-08-17T22:25:36.125Z,2.72
2022-08-17T22:28:07.613Z,2.50
2022-08-17T22:30:41.716Z,2.85
2022-08-17T22:33:37.028Z,3.30
2022-08-17T22:36:23.597Z,2.08
2022-08-17T22:38:56.206Z,2.75
2022-08-17T22:41:37.910Z,3.25
2022-08-17T22:44:20.693Z,2.72
2022-08-17T22:47:18.866Z,1.75
2022-08-17T22:49:53.285Z,2.53
2022-08-17T22:52:32.602Z,2.03
2022-08-17T22:55:30.561Z,2.70
2022-08-17T22:58:17.909Z,2.15
2022-08-17T23:00:48.612Z,2.45
2022-08-17T23:05:49.487Z,2.13
2022-08-17T23:08:21.273Z,2.95
2022-08-17T23:10:49.397Z,3.47
2022-08-17T23:13:17.186Z,3.17
2022-08-17T23:15:45.914Z,2.40
2022-08-17T23:18:13.712Z,3.30
2022-08-17T23:20:46.076Z,3.50
2022-08-17T23:23:16.138Z,2.40
2022-08-17T23:25:46.223Z,3.22
2022-08-17T23:28:14.459Z,3.15
2022-08-17T23:30:48.597Z,3.42
2022-08-17T23:33:30.101Z,3.85
2022-08-17T23:35:58.907Z,3.22
2022-08-17T23:38:27.473Z,4.10
2022-08-17T23:41:00.059Z,3.85
2022-08-17T23:43:29.781Z,4.00
2022-08-17T23:45:59.974Z,4.60
2022-08-17T23:48:35.801Z,5.22
2022-08-17T23:51:20.300Z,4.88
2022-08-17T23:53:55.272Z,4.85
2022-08-17T23:56:25.794Z,4.95
2022-08-17T23:58:55.423Z,5.90
